sensor_id;sensor_type;location;lat;lon;timestamp;temperature;humidity
8539;DHT22;4307;53.868;11.680;2023-07-13T00:01:26;18.40;99.90
8539;DHT22;4307;53.868;11.680;2023-07-13T00:03:53;18.30;99.90
8539;DHT22;4307;53.868;11.680;2023-07-13T00:06:19;18.30;99.90
8539;DHT22;4307;53.868;11.680;2023-07-13T00:08:48;18.30;99.90
8539;DHT22;4307;53.868;11.680;2023-07-13T00:11:16;18.20;99.90
8539;DHT22;4307;53.868;11.680;2023-07-13T00:13:43;18.20;99.90
8539;DHT22;4307;53.868;11.680;2023-07-13T00:16:11;18.10;99.90
8539;DHT22;4307;53.868;11.680;2023-07-13T00:18:39;18.10;99.90
8539;DHT22;4307;53.868;11.680;2023-07-13T00:21:06;18.10;99.90
8539;DHT22;4307;53.868;11.680;2023-07-13T00:23:33;18.20;99.90
8539;DHT22;4307;53.868;11.680;2023-07-13T00:26:01;18.20;99.90
8539;DHT22;4307;53.868;11.680;2023-07-13T00:28:28;18.20;99.90
8539;DHT22;4307;53.868;11.680;2023-07-13T00:30:55;18.20;99.90
8539;DHT22;4307;53.868;11.680;2023-07-13T00:33:22;18.10;99.90
8539;DHT22;4307;53.868;11.680;2023-07-13T00:35:49;18.10;99.90
8539;DHT22;4307;53.868;11.680;2023-07-13T00:38:16;18.10;99.90
8539;DHT22;4307;53.868;11.680;2023-07-13T00:40:43;18.10;99.90
8539;DHT22;4307;53.868;11.680;2023-07-13T00:43:13;18.10;99.90
8539;DHT22;4307;53.868;11.680;2023-07-13T00:46:11;18.10;99.90
8539;DHT22;4307;53.868;11.680;2023-07-13T00:48:38;18.10;99.90
8539;DHT22;4307;53.868;11.680;2023-07-13T00:51:05;18.20;99.90
8539;DHT22;4307;53.868;11.680;2023-07-13T00:53:33;18.20;99.90
8539;DHT22;4307;53.868;11.680;2023-07-13T00:56:01;18.20;99.90
8539;DHT22;4307;53.868;11.680;2023-07-13T00:58:29;18.20;99.90
8539;DHT22;4307;53.868;11.680;2023-07-13T01:00:56;18.20;99.90
8539;DHT22;4307;53.868;11.680;2023-07-13T01:03:23;18.10;99.90
8539;DHT22;4307;53.868;11.680;2023-07-13T01:05:50;18.10;99.90
8539;DHT22;4307;53.868;11.680;2023-07-13T01:08:19;18.00;99.90
8539;DHT22;4307;53.868;11.680;2023-07-13T01:10:54;18.00;99.90
8539;DHT22;4307;53.868;11.680;2023-07-13T01:13:21;18.00;99.90
8539;DHT22;4307;53.868;11.680;2023-07-13T01:15:51;18.00;99.90
8539;DHT22;4307;53.868;11.680;2023-07-13T01:18:20;18.00;99.90
8539;DHT22;4307;53.868;11.680;2023-07-13T01:20:51;18.00;99.90
8539;DHT22;4307;53.868;11.680;2023-07-13T01:23:18;18.00;99.90
8539;DHT22;4307;53.868;11.680;2023-07-13T01:25:45;18.00;99.90
8539;DHT22;4307;53.868;11.680;2023-07-13T01:28:12;18.00;99.90
8539;DHT22;4307;53.868;11.680;2023-07-13T01:30:40;18.00;99.90
8539;DHT22;4307;53.868;11.680;2023-07-13T01:33:06;18.00;99.90
8539;DHT22;4307;53.868;11.680;2023-07-13T01:35:35;17.90;99.90
8539;DHT22;4307;53.868;11.680;2023-07-13T01:38:03;17.90;99.90
8539;DHT22;4307;53.868;11.680;2023-07-13T01:40:30;17.90;99.90
8539;DHT22;4307;53.868;11.680;2023-07-13T01:42:57;17.80;99.90
8539;DHT22;4307;53.868;11.680;2023-07-13T01:45:24;17.80;99.90
8539;DHT22;4307;53.868;11.680;2023-07-13T01:47:51;17.70;99.90
8539;DHT22;4307;53.868;11.680;2023-07-13T01:50:17;17.70;99.90
8539;DHT22;4307;53.868;11.680;2023-07-13T01:52:44;17.70;99.90
8539;DHT22;4307;53.868;11.680;2023-07-13T01:55:12;17.70;99.90
8539;DHT22;4307;53.868;11.680;2023-07-13T01:57:39;17.70;99.90
8539;DHT22;4307;53.868;11.680;2023-07-13T02:00:09;17.70;99.90
8539;DHT22;4307;53.868;11.680;2023-07-13T02:02:36;17.60;99.90
8539;DHT22;4307;53.868;11.680;2023-07-13T02:05:02;17.60;99.90
8539;DHT22;4307;53.868;11.680;2023-07-13T02:07:29;17.60;99.90
8539;DHT22;4307;53.868;11.680;2023-07-13T02:09:56;17.60;99.90
8539;DHT22;4307;53.868;11.680;2023-07-13T02:12:24;17.50;99.90
8539;DHT22;4307;53.868;11.680;2023-07-13T02:14:50;17.50;99.90
8539;DHT22;4307;53.868;11.680;2023-07-13T02:17:17;17.40;99.90
8539;DHT22;4307;53.868;11.680;2023-07-13T02:19:44;17.40;99.90
8539;DHT22;4307;53.868;11.680;2023-07-13T02:22:11;17.40;99.90
8539;DHT22;4307;53.868;11.680;2023-07-13T02:24:37;17.40;99.90
8539;DHT22;4307;53.868;11.680;2023-07-13T02:27:05;17.30;99.90
8539;DHT22;4307;53.868;11.680;2023-07-13T02:29:33;17.30;99.90
8539;DHT22;4307;53.868;11.680;2023-07-13T02:31:59;17.30;99.90
8539;DHT22;4307;53.868;11.680;2023-07-13T02:34:26;17.30;99.90
8539;DHT22;4307;53.868;11.680;2023-07-13T02:36:53;17.30;99.90
8539;DHT22;4307;53.868;11.680;2023-07-13T02:39:19;17.30;99.90
8539;DHT22;4307;53.868;11.680;2023-07-13T02:41:46;17.20;99.90
8539;DHT22;4307;53.868;11.680;2023-07-13T02:44:13;17.20;99.90
8539;DHT22;4307;53.868;11.680;2023-07-13T02:46:41;17.10;99.90
8539;DHT22;4307;53.868;11.680;2023-07-13T02:49:08;17.10;99.90
8539;DHT22;4307;53.868;11.680;2023-07-13T02:51:34;17.10;99.90
8539;DHT22;4307;53.868;11.680;2023-07-13T02:54:01;17.10;99.90
8539;DHT22;4307;53.868;11.680;2023-07-13T02:56:31;17.10;99.90
8539;DHT22;4307;53.868;11.680;2023-07-13T02:58:58;17.00;99.90
8539;DHT22;4307;53.868;11.680;2023-07-13T03:01:25;17.00;99.90
8539;DHT22;4307;53.868;11.680;2023-07-13T03:03:53;17.00;99.90
8539;DHT22;4307;53.868;11.680;2023-07-13T03:06:19;17.00;99.90
8539;DHT22;4307;53.868;11.680;2023-07-13T03:08:47;17.00;99.90
8539;DHT22;4307;53.868;11.680;2023-07-13T03:11:16;17.00;99.90
8539;DHT22;4307;53.868;11.680;2023-07-13T03:13:43;17.00;99.90
8539;DHT22;4307;53.868;11.680;2023-07-13T03:16:10;17.00;99.90
8539;DHT22;4307;53.868;11.680;2023-07-13T03:18:38;17.00;99.90
8539;DHT22;4307;53.868;11.680;2023-07-13T03:21:06;17.00;99.90
8539;DHT22;4307;53.868;11.680;2023-07-13T03:23:33;17.00;99.90
8539;DHT22;4307;53.868;11.680;2023-07-13T03:26:04;17.10;99.90
8539;DHT22;4307;53.868;11.680;2023-07-13T03:28:31;17.00;99.90
8539;DHT22;4307;53.868;11.680;2023-07-13T03:31:03;17.00;99.90
8539;DHT22;4307;53.868;11.680;2023-07-13T03:33:29;17.00;99.90
8539;DHT22;4307;53.868;11.680;2023-07-13T03:35:56;17.00;99.90
8539;DHT22;4307;53.868;11.680;2023-07-13T03:38:24;17.10;99.90
8539;DHT22;4307;53.868;11.680;2023-07-13T03:40:51;17.20;99.90
8539;DHT22;4307;53.868;11.680;2023-07-13T03:43:18;17.30;99.90
8539;DHT22;4307;53.868;11.680;2023-07-13T03:45:46;17.40;99.90
8539;DHT22;4307;53.868;11.680;2023-07-13T03:48:13;17.50;99.90
8539;DHT22;4307;53.868;11.680;2023-07-13T03:50:39;17.50;99.90
8539;DHT22;4307;53.868;11.680;2023-07-13T03:53:06;17.60;99.90
8539;DHT22;4307;53.868;11.680;2023-07-13T03:55:34;17.60;99.90
8539;DHT22;4307;53.868;11.680;2023-07-13T03:58:25;17.60;99.90
8539;DHT22;4307;53.868;11.680;2023-07-13T04:00:52;17.80;99.90
8539;DHT22;4307;53.868;11.680;2023-07-13T04:03:19;18.00;99.90
8539;DHT22;4307;53.868;11.680;2023-07-13T04:05:46;18.30;99.90
8539;DHT22;4307;53.868;11.680;2023-07-13T04:08:13;18.50;99.90
8539;DHT22;4307;53.868;11.680;2023-07-13T04:10:41;18.80;99.90
8539;DHT22;4307;53.868;11.680;2023-07-13T04:13:08;19.00;99.90
8539;DHT22;4307;53.868;11.680;2023-07-13T04:15:35;19.10;99.90
8539;DHT22;4307;53.868;11.680;2023-07-13T04:18:01;19.30;99.90
8539;DHT22;4307;53.868;11.680;2023-07-13T04:20:29;19.50;99.90
8539;DHT22;4307;53.868;11.680;2023-07-13T04:22:56;19.70;99.90
8539;DHT22;4307;53.868;11.680;2023-07-13T04:25:23;19.90;99.90
8539;DHT22;4307;53.868;11.680;2023-07-13T04:27:52;20.10;99.90
8539;DHT22;4307;53.868;11.680;2023-07-13T04:30:19;20.40;99.90
8539;DHT22;4307;53.868;11.680;2023-07-13T04:32:46;20.50;99.90
8539;DHT22;4307;53.868;11.680;2023-07-13T04:35:13;20.70;99.90
8539;DHT22;4307;53.868;11.680;2023-07-13T04:37:40;20.90;99.90
8539;DHT22;4307;53.868;11.680;2023-07-13T04:40:10;21.10;99.90
8539;DHT22;4307;53.868;11.680;2023-07-13T04:42:37;21.40;99.90
8539;DHT22;4307;53.868;11.680;2023-07-13T04:45:07;21.70;99.90
8539;DHT22;4307;53.868;11.680;2023-07-13T04:47:33;21.90;99.90
8539;DHT22;4307;53.868;11.680;2023-07-13T04:50:00;22.10;99.90
8539;DHT22;4307;53.868;11.680;2023-07-13T04:52:27;22.10;99.90
8539;DHT22;4307;53.868;11.680;2023-07-13T04:54:53;22.30;99.90
8539;DHT22;4307;53.868;11.680;2023-07-13T04:57:20;22.50;99.90
8539;DHT22;4307;53.868;11.680;2023-07-13T04:59:47;22.70;99.90
8539;DHT22;4307;53.868;11.680;2023-07-13T05:02:15;22.70;99.90
8539;DHT22;4307;53.868;11.680;2023-07-13T05:04:42;22.70;99.90
8539;DHT22;4307;53.868;11.680;2023-07-13T05:07:09;22.90;99.90
8539;DHT22;4307;53.868;11.680;2023-07-13T05:09:36;23.00;99.90
8539;DHT22;4307;53.868;11.680;2023-07-13T05:12:03;23.10;99.90
8539;DHT22;4307;53.868;11.680;2023-07-13T05:14:30;23.20;99.90
8539;DHT22;4307;53.868;11.680;2023-07-13T05:16:56;23.30;99.90
8539;DHT22;4307;53.868;11.680;2023-07-13T05:19:24;23.40;99.90
8539;DHT22;4307;53.868;11.680;2023-07-13T05:21:51;23.40;99.90
8539;DHT22;4307;53.868;11.680;2023-07-13T05:24:18;23.50;99.90
8539;DHT22;4307;53.868;11.680;2023-07-13T05:26:45;23.60;99.90
8539;DHT22;4307;53.868;11.680;2023-07-13T05:29:11;23.90;99.90
8539;DHT22;4307;53.868;11.680;2023-07-13T05:31:38;24.30;99.90
8539;DHT22;4307;53.868;11.680;2023-07-13T05:34:05;24.60;99.90
8539;DHT22;4307;53.868;11.680;2023-07-13T05:36:33;24.90;99.90
8539;DHT22;4307;53.868;11.680;2023-07-13T05:39:00;25.10;99.60
8539;DHT22;4307;53.868;11.680;2023-07-13T05:41:26;25.10;98.90
8539;DHT22;4307;53.868;11.680;2023-07-13T05:43:53;25.20;98.90
8539;DHT22;4307;53.868;11.680;2023-07-13T05:46:19;25.40;98.50
8539;DHT22;4307;53.868;11.680;2023-07-13T05:48:46;25.50;97.40
8539;DHT22;4307;53.868;11.680;2023-07-13T05:51:13;25.50;97.10
8539;DHT22;4307;53.868;11.680;2023-07-13T05:53:41;25.60;96.90
8539;DHT22;4307;53.868;11.680;2023-07-13T05:56:08;25.70;96.00
8539;DHT22;4307;53.868;11.680;2023-07-13T05:58:35;25.70;95.50
8539;DHT22;4307;53.868;11.680;2023-07-13T06:01:03;25.60;95.10
8539;DHT22;4307;53.868;11.680;2023-07-13T06:03:30;25.40;94.90
8539;DHT22;4307;53.868;11.680;2023-07-13T06:05:57;25.40;94.70
8539;DHT22;4307;53.868;11.680;2023-07-13T06:08:25;25.20;94.50
8539;DHT22;4307;53.868;11.680;2023-07-13T06:10:53;24.90;94.70
8539;DHT22;4307;53.868;11.680;2023-07-13T06:13:20;25.00;95.00
8539;DHT22;4307;53.868;11.680;2023-07-13T06:15:48;25.40;94.60
8539;DHT22;4307;53.868;11.680;2023-07-13T06:18:15;25.90;93.80
8539;DHT22;4307;53.868;11.680;2023-07-13T06:20:42;26.00;93.20
8539;DHT22;4307;53.868;11.680;2023-07-13T06:23:08;26.00;92.90
8539;DHT22;4307;53.868;11.680;2023-07-13T06:25:35;26.10;93.10
8539;DHT22;4307;53.868;11.680;2023-07-13T06:28:03;26.20;92.50
8539;DHT22;4307;53.868;11.680;2023-07-13T06:30:30;26.00;92.10
8539;DHT22;4307;53.868;11.680;2023-07-13T06:32:57;25.90;92.00
8539;DHT22;4307;53.868;11.680;2023-07-13T06:35:24;26.20;91.90
8539;DHT22;4307;53.868;11.680;2023-07-13T06:37:50;26.70;91.40
8539;DHT22;4307;53.868;11.680;2023-07-13T06:40:17;27.20;90.60
8539;DHT22;4307;53.868;11.680;2023-07-13T06:42:44;27.30;89.20
8539;DHT22;4307;53.868;11.680;2023-07-13T06:45:12;27.20;88.60
8539;DHT22;4307;53.868;11.680;2023-07-13T06:47:38;27.10;87.80
8539;DHT22;4307;53.868;11.680;2023-07-13T06:50:06;26.80;87.70
8539;DHT22;4307;53.868;11.680;2023-07-13T06:52:32;26.70;87.90
8539;DHT22;4307;53.868;11.680;2023-07-13T06:54:59;26.90;86.70
8539;DHT22;4307;53.868;11.680;2023-07-13T06:57:26;27.00;85.70
8539;DHT22;4307;53.868;11.680;2023-07-13T06:59:53;27.30;84.60
8539;DHT22;4307;53.868;11.680;2023-07-13T07:02:21;27.50;84.20
8539;DHT22;4307;53.868;11.680;2023-07-13T07:04:47;27.60;83.20
8539;DHT22;4307;53.868;11.680;2023-07-13T07:07:15;27.60;83.00
8539;DHT22;4307;53.868;11.680;2023-07-13T07:09:42;27.80;82.50
8539;DHT22;4307;53.868;11.680;2023-07-13T07:12:09;27.90;81.50
8539;DHT22;4307;53.868;11.680;2023-07-13T07:14:35;27.60;81.90
8539;DHT22;4307;53.868;11.680;2023-07-13T07:17:02;27.60;81.80
8539;DHT22;4307;53.868;11.680;2023-07-13T07:19:30;27.80;81.20
8539;DHT22;4307;53.868;11.680;2023-07-13T07:21:57;27.90;80.50
8539;DHT22;4307;53.868;11.680;2023-07-13T07:24:24;27.70;80.10
8539;DHT22;4307;53.868;11.680;2023-07-13T07:26:50;27.40;79.70
8539;DHT22;4307;53.868;11.680;2023-07-13T07:29:17;27.00;80.00
8539;DHT22;4307;53.868;11.680;2023-07-13T07:31:44;26.70;80.20
8539;DHT22;4307;53.868;11.680;2023-07-13T07:34:10;26.50;80.50
8539;DHT22;4307;53.868;11.680;2023-07-13T07:36:38;26.20;80.50
8539;DHT22;4307;53.868;11.680;2023-07-13T07:39:05;25.60;81.30
8539;DHT22;4307;53.868;11.680;2023-07-13T07:41:32;25.10;82.60
8539;DHT22;4307;53.868;11.680;2023-07-13T07:43:59;24.60;83.20
8539;DHT22;4307;53.868;11.680;2023-07-13T07:46:25;24.30;83.30
8539;DHT22;4307;53.868;11.680;2023-07-13T07:48:53;24.10;83.30
8539;DHT22;4307;53.868;11.680;2023-07-13T07:51:20;24.00;83.40
8539;DHT22;4307;53.868;11.680;2023-07-13T07:53:48;24.10;83.90
8539;DHT22;4307;53.868;11.680;2023-07-13T07:56:14;24.30;84.10
8539;DHT22;4307;53.868;11.680;2023-07-13T07:58:42;24.40;84.60
8539;DHT22;4307;53.868;11.680;2023-07-13T08:01:10;24.40;84.30
8539;DHT22;4307;53.868;11.680;2023-07-13T08:03:36;24.60;84.30
8539;DHT22;4307;53.868;11.680;2023-07-13T08:06:03;24.90;84.20
8539;DHT22;4307;53.868;11.680;2023-07-13T08:08:30;25.10;83.90
8539;DHT22;4307;53.868;11.680;2023-07-13T08:10:58;25.20;83.60
8539;DHT22;4307;53.868;11.680;2023-07-13T08:13:28;25.40;82.90
8539;DHT22;4307;53.868;11.680;2023-07-13T08:15:55;25.40;82.40
8539;DHT22;4307;53.868;11.680;2023-07-13T08:18:21;25.60;82.80
8539;DHT22;4307;53.868;11.680;2023-07-13T08:20:48;25.90;82.80
8539;DHT22;4307;53.868;11.680;2023-07-13T08:23:14;26.30;82.40
8539;DHT22;4307;53.868;11.680;2023-07-13T08:25:42;26.20;82.20
8539;DHT22;4307;53.868;11.680;2023-07-13T08:28:10;26.40;81.70
8539;DHT22;4307;53.868;11.680;2023-07-13T08:30:37;26.20;81.40
8539;DHT22;4307;53.868;11.680;2023-07-13T08:33:03;26.00;81.80
8539;DHT22;4307;53.868;11.680;2023-07-13T08:35:31;26.00;82.20
8539;DHT22;4307;53.868;11.680;2023-07-13T08:37:57;25.80;82.00
8539;DHT22;4307;53.868;11.680;2023-07-13T08:40:27;25.80;82.20
8539;DHT22;4307;53.868;11.680;2023-07-13T08:42:54;25.80;82.50
8539;DHT22;4307;53.868;11.680;2023-07-13T08:45:28;25.90;82.30
8539;DHT22;4307;53.868;11.680;2023-07-13T08:48:01;25.90;82.10
8539;DHT22;4307;53.868;11.680;2023-07-13T08:50:32;25.80;81.60
8539;DHT22;4307;53.868;11.680;2023-07-13T08:53:00;25.40;81.70
8539;DHT22;4307;53.868;11.680;2023-07-13T08:55:31;25.10;82.40
8539;DHT22;4307;53.868;11.680;2023-07-13T08:58:01;25.10;82.60
8539;DHT22;4307;53.868;11.680;2023-07-13T09:00:37;25.10;82.10
8539;DHT22;4307;53.868;11.680;2023-07-13T09:03:16;25.00;82.10
8539;DHT22;4307;53.868;11.680;2023-07-13T09:05:49;25.00;82.20
8539;DHT22;4307;53.868;11.680;2023-07-13T09:08:37;25.10;82.00
8539;DHT22;4307;53.868;11.680;2023-07-13T09:11:16;25.20;81.60
8539;DHT22;4307;53.868;11.680;2023-07-13T09:13:48;25.20;81.40
8539;DHT22;4307;53.868;11.680;2023-07-13T09:16:19;25.00;81.20
8539;DHT22;4307;53.868;11.680;2023-07-13T09:18:49;25.00;82.00
8539;DHT22;4307;53.868;11.680;2023-07-13T09:21:20;24.90;82.40
8539;DHT22;4307;53.868;11.680;2023-07-13T09:23:49;25.00;82.50
8539;DHT22;4307;53.868;11.680;2023-07-13T09:26:19;24.90;82.30
8539;DHT22;4307;53.868;11.680;2023-07-13T09:28:48;24.90;82.60
8539;DHT22;4307;53.868;11.680;2023-07-13T09:31:20;25.00;82.60
8539;DHT22;4307;53.868;11.680;2023-07-13T09:33:49;25.00;82.30
8539;DHT22;4307;53.868;11.680;2023-07-13T09:36:19;25.00;82.00
8539;DHT22;4307;53.868;11.680;2023-07-13T09:38:48;24.80;82.00
8539;DHT22;4307;53.868;11.680;2023-07-13T09:41:21;24.80;82.20
8539;DHT22;4307;53.868;11.680;2023-07-13T09:44:08;24.70;82.10
8539;DHT22;4307;53.868;11.680;2023-07-13T09:46:42;24.70;82.90
8539;DHT22;4307;53.868;11.680;2023-07-13T09:49:11;25.00;82.20
8539;DHT22;4307;53.868;11.680;2023-07-13T09:51:38;25.20;82.10
8539;DHT22;4307;53.868;11.680;2023-07-13T09:54:05;25.50;81.50
8539;DHT22;4307;53.868;11.680;2023-07-13T09:56:31;25.50;80.60
8539;DHT22;4307;53.868;11.680;2023-07-13T09:58:58;25.30;80.40
8539;DHT22;4307;53.868;11.680;2023-07-13T10:01:34;25.10;80.40
8539;DHT22;4307;53.868;11.680;2023-07-13T10:04:03;24.80;80.20
8539;DHT22;4307;53.868;11.680;2023-07-13T10:06:37;24.60;80.40
8539;DHT22;4307;53.868;11.680;2023-07-13T10:09:07;24.40;80.60
8539;DHT22;4307;53.868;11.680;2023-07-13T10:11:35;24.20;81.10
8539;DHT22;4307;53.868;11.680;2023-07-13T10:14:10;24.20;81.60
8539;DHT22;4307;53.868;11.680;2023-07-13T10:16:38;24.10;81.90
8539;DHT22;4307;53.868;11.680;2023-07-13T10:19:14;24.10;82.20
8539;DHT22;4307;53.868;11.680;2023-07-13T10:21:49;24.00;82.80
8539;DHT22;4307;53.868;11.680;2023-07-13T10:24:20;23.90;82.30
8539;DHT22;4307;53.868;11.680;2023-07-13T10:26:52;23.70;82.60
8539;DHT22;4307;53.868;11.680;2023-07-13T10:29:22;23.60;83.00
8539;DHT22;4307;53.868;11.680;2023-07-13T10:31:50;23.50;83.60
8539;DHT22;4307;53.868;11.680;2023-07-13T10:34:18;23.60;84.20
8539;DHT22;4307;53.868;11.680;2023-07-13T10:36:48;23.80;84.50
8539;DHT22;4307;53.868;11.680;2023-07-13T10:39:22;24.10;84.10
8539;DHT22;4307;53.868;11.680;2023-07-13T10:41:52;24.30;83.40
8539;DHT22;4307;53.868;11.680;2023-07-13T10:44:22;24.40;83.20
8539;DHT22;4307;53.868;11.680;2023-07-13T10:46:53;24.70;82.90
8539;DHT22;4307;53.868;11.680;2023-07-13T10:49:22;24.90;82.70
8539;DHT22;4307;53.868;11.680;2023-07-13T10:51:49;25.10;81.80
8539;DHT22;4307;53.868;11.680;2023-07-13T10:54:19;25.10;81.10
8539;DHT22;4307;53.868;11.680;2023-07-13T10:56:51;25.20;81.60
8539;DHT22;4307;53.868;11.680;2023-07-13T10:59:24;25.30;80.40
8539;DHT22;4307;53.868;11.680;2023-07-13T11:01:56;25.30;80.20
8539;DHT22;4307;53.868;11.680;2023-07-13T11:04:26;25.30;81.10
8539;DHT22;4307;53.868;11.680;2023-07-13T11:06:57;25.40;79.60
8539;DHT22;4307;53.868;11.680;2023-07-13T11:09:40;25.60;78.70
8539;DHT22;4307;53.868;11.680;2023-07-13T11:12:28;25.50;78.50
8539;DHT22;4307;53.868;11.680;2023-07-13T11:15:06;25.40;78.70
8539;DHT22;4307;53.868;11.680;2023-07-13T11:17:49;25.30;79.00
8539;DHT22;4307;53.868;11.680;2023-07-13T11:20:32;25.10;79.20
8539;DHT22;4307;53.868;11.680;2023-07-13T11:26:02;24.80;79.60
8539;DHT22;4307;53.868;11.680;2023-07-13T11:28:31;24.80;79.70
8539;DHT22;4307;53.868;11.680;2023-07-13T11:31:15;24.90;79.50
8539;DHT22;4307;53.868;11.680;2023-07-13T11:33:56;25.10;79.00
8539;DHT22;4307;53.868;11.680;2023-07-13T11:36:36;25.20;78.70
8539;DHT22;4307;53.868;11.680;2023-07-13T11:39:17;25.20;78.20
8539;DHT22;4307;53.868;11.680;2023-07-13T11:41:49;25.10;78.40
8539;DHT22;4307;53.868;11.680;2023-07-13T11:44:19;25.00;78.80
8539;DHT22;4307;53.868;11.680;2023-07-13T11:46:47;24.90;80.80
8539;DHT22;4307;53.868;11.680;2023-07-13T11:49:16;24.60;83.10
8539;DHT22;4307;53.868;11.680;2023-07-13T11:51:45;24.50;85.30
8539;DHT22;4307;53.868;11.680;2023-07-13T11:54:23;24.40;86.70
8539;DHT22;4307;53.868;11.680;2023-07-13T11:56:50;24.50;87.10
8539;DHT22;4307;53.868;11.680;2023-07-13T11:59:17;24.60;87.40
8539;DHT22;4307;53.868;11.680;2023-07-13T12:01:47;24.80;87.60
8539;DHT22;4307;53.868;11.680;2023-07-13T12:04:22;25.00;86.80
8539;DHT22;4307;53.868;11.680;2023-07-13T12:06:55;25.10;86.10
8539;DHT22;4307;53.868;11.680;2023-07-13T12:09:27;25.40;85.40
8539;DHT22;4307;53.868;11.680;2023-07-13T12:11:54;25.80;84.00
8539;DHT22;4307;53.868;11.680;2023-07-13T12:14:22;26.20;82.80
8539;DHT22;4307;53.868;11.680;2023-07-13T12:16:52;26.70;81.40
8539;DHT22;4307;53.868;11.680;2023-07-13T12:19:21;27.20;79.70
8539;DHT22;4307;53.868;11.680;2023-07-13T12:21:48;27.60;79.10
8539;DHT22;4307;53.868;11.680;2023-07-13T12:24:19;27.60;78.00
8539;DHT22;4307;53.868;11.680;2023-07-13T12:26:51;27.50;77.20
8539;DHT22;4307;53.868;11.680;2023-07-13T12:29:18;27.20;76.40
8539;DHT22;4307;53.868;11.680;2023-07-13T12:31:47;26.90;75.80
8539;DHT22;4307;53.868;11.680;2023-07-13T12:34:16;26.80;75.60
8539;DHT22;4307;53.868;11.680;2023-07-13T12:36:46;26.70;75.90
8539;DHT22;4307;53.868;11.680;2023-07-13T12:39:18;27.00;75.20
8539;DHT22;4307;53.868;11.680;2023-07-13T12:41:46;27.30;74.50
8539;DHT22;4307;53.868;11.680;2023-07-13T12:44:14;27.50;73.40
8539;DHT22;4307;53.868;11.680;2023-07-13T12:46:52;27.50;72.80
8539;DHT22;4307;53.868;11.680;2023-07-13T12:49:27;27.10;72.90
8539;DHT22;4307;53.868;11.680;2023-07-13T12:51:58;26.60;73.40
8539;DHT22;4307;53.868;11.680;2023-07-13T12:54:28;26.00;74.10
8539;DHT22;4307;53.868;11.680;2023-07-13T12:56:56;25.40;74.70
8539;DHT22;4307;53.868;11.680;2023-07-13T12:59:28;25.30;75.40
8539;DHT22;4307;53.868;11.680;2023-07-13T13:01:56;25.60;75.30
8539;DHT22;4307;53.868;11.680;2023-07-13T13:04:23;25.70;75.00
8539;DHT22;4307;53.868;11.680;2023-07-13T13:07:01;25.80;74.80
8539;DHT22;4307;53.868;11.680;2023-07-13T13:09:29;25.70;75.00
8539;DHT22;4307;53.868;11.680;2023-07-13T13:11:56;25.60;74.90
8539;DHT22;4307;53.868;11.680;2023-07-13T13:14:23;25.50;74.80
8539;DHT22;4307;53.868;11.680;2023-07-13T13:16:51;25.40;74.60
8539;DHT22;4307;53.868;11.680;2023-07-13T13:19:20;25.40;74.50
8539;DHT22;4307;53.868;11.680;2023-07-13T13:21:48;25.50;74.60
8539;DHT22;4307;53.868;11.680;2023-07-13T13:24:17;25.50;74.40
8539;DHT22;4307;53.868;11.680;2023-07-13T13:26:47;25.40;74.40
8539;DHT22;4307;53.868;11.680;2023-07-13T13:29:17;25.30;74.90
8539;DHT22;4307;53.868;11.680;2023-07-13T13:31:44;25.30;75.20
8539;DHT22;4307;53.868;11.680;2023-07-13T13:34:13;25.40;75.30
8539;DHT22;4307;53.868;11.680;2023-07-13T13:36:40;25.30;75.30
8539;DHT22;4307;53.868;11.680;2023-07-13T13:39:20;25.30;75.70
8539;DHT22;4307;53.868;11.680;2023-07-13T13:41:50;25.30;76.10
8539;DHT22;4307;53.868;11.680;2023-07-13T13:44:18;25.20;76.40
8539;DHT22;4307;53.868;11.680;2023-07-13T13:46:46;25.10;76.40
8539;DHT22;4307;53.868;11.680;2023-07-13T13:49:15;25.00;76.20
8539;DHT22;4307;53.868;11.680;2023-07-13T13:51:44;24.80;76.00
8539;DHT22;4307;53.868;11.680;2023-07-13T13:54:12;24.60;76.20
8539;DHT22;4307;53.868;11.680;2023-07-13T13:56:41;24.50;76.50
8539;DHT22;4307;53.868;11.680;2023-07-13T13:59:09;24.40;76.50
8539;DHT22;4307;53.868;11.680;2023-07-13T14:01:36;24.40;76.40
8539;DHT22;4307;53.868;11.680;2023-07-13T14:04:04;24.30;76.20
8539;DHT22;4307;53.868;11.680;2023-07-13T14:06:33;24.20;76.30
8539;DHT22;4307;53.868;11.680;2023-07-13T14:09:00;24.30;76.40
8539;DHT22;4307;53.868;11.680;2023-07-13T14:11:28;24.40;76.60
8539;DHT22;4307;53.868;11.680;2023-07-13T14:13:57;24.50;76.40
8539;DHT22;4307;53.868;11.680;2023-07-13T14:16:29;24.40;76.20
8539;DHT22;4307;53.868;11.680;2023-07-13T14:18:58;24.20;76.30
8539;DHT22;4307;53.868;11.680;2023-07-13T14:21:27;24.00;76.60
8539;DHT22;4307;53.868;11.680;2023-07-13T14:23:54;23.70;77.50
8539;DHT22;4307;53.868;11.680;2023-07-13T14:26:23;23.40;78.70
8539;DHT22;4307;53.868;11.680;2023-07-13T14:28:52;23.10;80.00
8539;DHT22;4307;53.868;11.680;2023-07-13T14:31:20;22.80;81.20
8539;DHT22;4307;53.868;11.680;2023-07-13T14:33:49;22.60;82.40
8539;DHT22;4307;53.868;11.680;2023-07-13T14:36:27;22.30;83.00
8539;DHT22;4307;53.868;11.680;2023-07-13T14:38:54;21.90;83.20
8539;DHT22;4307;53.868;11.680;2023-07-13T14:41:21;21.60;83.60
8539;DHT22;4307;53.868;11.680;2023-07-13T14:43:48;21.30;84.00
8539;DHT22;4307;53.868;11.680;2023-07-13T14:46:35;21.00;84.30
8539;DHT22;4307;53.868;11.680;2023-07-13T14:49:05;20.70;85.30
8539;DHT22;4307;53.868;11.680;2023-07-13T14:51:33;20.40;86.40
8539;DHT22;4307;53.868;11.680;2023-07-13T14:54:04;20.10;87.70
8539;DHT22;4307;53.868;11.680;2023-07-13T14:56:31;19.80;89.20
8539;DHT22;4307;53.868;11.680;2023-07-13T14:58:58;19.50;90.20
8539;DHT22;4307;53.868;11.680;2023-07-13T15:01:25;19.20;90.70
8539;DHT22;4307;53.868;11.680;2023-07-13T15:03:52;19.10;91.30
8539;DHT22;4307;53.868;11.680;2023-07-13T15:06:20;18.80;91.50
8539;DHT22;4307;53.868;11.680;2023-07-13T15:08:47;18.30;91.90
8539;DHT22;4307;53.868;11.680;2023-07-13T15:11:15;17.80;92.80
8539;DHT22;4307;53.868;11.680;2023-07-13T15:13:43;17.50;93.70
8539;DHT22;4307;53.868;11.680;2023-07-13T15:16:15;17.30;94.40
8539;DHT22;4307;53.868;11.680;2023-07-13T15:18:44;17.10;94.90
8539;DHT22;4307;53.868;11.680;2023-07-13T15:21:14;17.00;95.50
8539;DHT22;4307;53.868;11.680;2023-07-13T15:23:45;17.00;96.00
8539;DHT22;4307;53.868;11.680;2023-07-13T15:26:13;17.00;96.40
8539;DHT22;4307;53.868;11.680;2023-07-13T15:28:41;17.00;96.80
8539;DHT22;4307;53.868;11.680;2023-07-13T15:31:19;17.00;97.20
8539;DHT22;4307;53.868;11.680;2023-07-13T15:33:46;17.00;97.60
8539;DHT22;4307;53.868;11.680;2023-07-13T15:36:14;17.00;97.80
8539;DHT22;4307;53.868;11.680;2023-07-13T15:38:43;17.00;98.30
8539;DHT22;4307;53.868;11.680;2023-07-13T15:41:16;17.10;99.00
8539;DHT22;4307;53.868;11.680;2023-07-13T15:43:44;17.30;99.60
8539;DHT22;4307;53.868;11.680;2023-07-13T15:46:11;17.40;99.80
8539;DHT22;4307;53.868;11.680;2023-07-13T15:48:37;17.50;99.90
8539;DHT22;4307;53.868;11.680;2023-07-13T15:51:08;17.70;99.90
8539;DHT22;4307;53.868;11.680;2023-07-13T15:53:38;17.80;99.90
8539;DHT22;4307;53.868;11.680;2023-07-13T15:56:17;18.00;99.90
8539;DHT22;4307;53.868;11.680;2023-07-13T15:58:44;18.20;99.90